sensor_id;sensor_type;location;lat;lon;timestamp;P1;durP1;ratioP1;P2;durP2;ratioP2
74658;SDS011;63186;51.204;6.536;2022-10-31T00:01:27;19.00;;;9.83;;
74658;SDS011;63186;51.204;6.536;2022-10-31T00:03:54;15.85;;;9.13;;
74658;SDS011;63186;51.204;6.536;2022-10-31T00:06:20;19.20;;;10.40;;
74658;SDS011;63186;51.204;6.536;2022-10-31T00:08:46;17.92;;;9.70;;
74658;SDS011;63186;51.204;6.536;2022-10-31T00:11:13;15.48;;;8.68;;
74658;SDS011;63186;51.204;6.536;2022-10-31T00:13:38;15.63;;;7.80;;
74658;SDS011;63186;51.204;6.536;2022-10-31T00:16:03;19.95;;;9.15;;
74658;SDS011;63186;51.204;6.536;2022-10-31T00:18:29;16.70;;;8.88;;
74658;SDS011;63186;51.204;6.536;2022-10-31T00:21:01;16.95;;;9.68;;
74658;SDS011;63186;51.204;6.536;2022-10-31T00:23:27;17.92;;;9.02;;
74658;SDS011;63186;51.204;6.536;2022-10-31T00:25:53;24.35;;;9.43;;
74658;SDS011;63186;51.204;6.536;2022-10-31T00:28:19;20.13;;;10.05;;
74658;SDS011;63186;51.204;6.536;2022-10-31T00:30:44;19.17;;;9.50;;
74658;SDS011;63186;51.204;6.536;2022-10-31T00:33:09;18.27;;;9.20;;
74658;SDS011;63186;51.204;6.536;2022-10-31T00:35:34;22.37;;;10.53;;
74658;SDS011;63186;51.204;6.536;2022-10-31T00:38:00;18.43;;;10.30;;
74658;SDS011;63186;51.204;6.536;2022-10-31T00:40:25;19.05;;;9.80;;
74658;SDS011;63186;51.204;6.536;2022-10-31T00:42:50;19.88;;;9.70;;
74658;SDS011;63186;51.204;6.536;2022-10-31T00:45:16;18.53;;;10.40;;
74658;SDS011;63186;51.204;6.536;2022-10-31T00:47:41;20.03;;;9.80;;
74658;SDS011;63186;51.204;6.536;2022-10-31T00:50:06;19.97;;;9.77;;
74658;SDS011;63186;51.204;6.536;2022-10-31T00:52:32;16.77;;;8.38;;
74658;SDS011;63186;51.204;6.536;2022-10-31T00:54:58;17.50;;;8.80;;
74658;SDS011;63186;51.204;6.536;2022-10-31T00:57:23;17.20;;;9.10;;
74658;SDS011;63186;51.204;6.536;2022-10-31T00:59:48;18.20;;;8.57;;
74658;SDS011;63186;51.204;6.536;2022-10-31T01:02:13;17.37;;;9.43;;
74658;SDS011;63186;51.204;6.536;2022-10-31T01:04:39;16.63;;;8.23;;
74658;SDS011;63186;51.204;6.536;2022-10-31T01:07:04;19.40;;;10.27;;
74658;SDS011;63186;51.204;6.536;2022-10-31T01:09:29;16.90;;;8.80;;
74658;SDS011;63186;51.204;6.536;2022-10-31T01:11:55;16.53;;;8.60;;
74658;SDS011;63186;51.204;6.536;2022-10-31T01:14:20;19.40;;;9.27;;
74658;SDS011;63186;51.204;6.536;2022-10-31T01:16:45;18.50;;;9.63;;
74658;SDS011;63186;51.204;6.536;2022-10-31T01:19:10;22.20;;;9.53;;
74658;SDS011;63186;51.204;6.536;2022-10-31T01:21:36;18.13;;;8.63;;
74658;SDS011;63186;51.204;6.536;2022-10-31T01:24:01;18.33;;;9.33;;
74658;SDS011;63186;51.204;6.536;2022-10-31T01:26:30;18.65;;;9.23;;
74658;SDS011;63186;51.204;6.536;2022-10-31T01:28:58;15.93;;;9.73;;
74658;SDS011;63186;51.204;6.536;2022-10-31T01:31:25;19.38;;;9.88;;
74658;SDS011;63186;51.204;6.536;2022-10-31T01:36:23;15.25;;;8.98;;
74658;SDS011;63186;51.204;6.536;2022-10-31T01:38:57;18.25;;;8.95;;
74658;SDS011;63186;51.204;6.536;2022-10-31T01:41:25;20.02;;;10.13;;
74658;SDS011;63186;51.204;6.536;2022-10-31T01:43:58;15.98;;;8.02;;
74658;SDS011;63186;51.204;6.536;2022-10-31T01:46:32;20.25;;;9.90;;
74658;SDS011;63186;51.204;6.536;2022-10-31T01:49:02;19.83;;;9.98;;
74658;SDS011;63186;51.204;6.536;2022-10-31T01:51:34;17.80;;;9.35;;
74658;SDS011;63186;51.204;6.536;2022-10-31T01:54:04;20.67;;;11.07;;
74658;SDS011;63186;51.204;6.536;2022-10-31T01:56:33;22.17;;;10.40;;
74658;SDS011;63186;51.204;6.536;2022-10-31T01:59:02;21.42;;;9.98;;
74658;SDS011;63186;51.204;6.536;2022-10-31T02:01:31;19.42;;;9.80;;
74658;SDS011;63186;51.204;6.536;2022-10-31T02:03:57;19.05;;;10.20;;
74658;SDS011;63186;51.204;6.536;2022-10-31T02:06:26;20.90;;;10.10;;
74658;SDS011;63186;51.204;6.536;2022-10-31T02:08:59;19.85;;;9.20;;
74658;SDS011;63186;51.204;6.536;2022-10-31T02:11:27;18.90;;;10.30;;
74658;SDS011;63186;51.204;6.536;2022-10-31T02:13:54;19.15;;;9.00;;
74658;SDS011;63186;51.204;6.536;2022-10-31T02:16:20;20.02;;;9.23;;
74658;SDS011;63186;51.204;6.536;2022-10-31T02:18:45;17.93;;;9.37;;
74658;SDS011;63186;51.204;6.536;2022-10-31T02:26:14;15.65;;;7.60;;
74658;SDS011;63186;51.204;6.536;2022-10-31T02:34:22;18.77;;;9.35;;
74658;SDS011;63186;51.204;6.536;2022-10-31T02:36:57;20.10;;;10.52;;
74658;SDS011;63186;51.204;6.536;2022-10-31T02:39:33;17.15;;;9.50;;
74658;SDS011;63186;51.204;6.536;2022-10-31T02:44:54;20.70;;;10.93;;
74658;SDS011;63186;51.204;6.536;2022-10-31T02:47:40;21.73;;;10.57;;
74658;SDS011;63186;51.204;6.536;2022-10-31T02:50:18;17.20;;;10.10;;
74658;SDS011;63186;51.204;6.536;2022-10-31T02:52:51;18.83;;;10.27;;
74658;SDS011;63186;51.204;6.536;2022-10-31T02:57:53;20.85;;;11.05;;
74658;SDS011;63186;51.204;6.536;2022-10-31T03:00:20;16.95;;;10.10;;
74658;SDS011;63186;51.204;6.536;2022-10-31T03:10:52;20.23;;;10.23;;
74658;SDS011;63186;51.204;6.536;2022-10-31T03:13:32;19.42;;;9.13;;
74658;SDS011;63186;51.204;6.536;2022-10-31T03:16:07;20.42;;;10.30;;
74658;SDS011;63186;51.204;6.536;2022-10-31T03:18:39;21.17;;;10.63;;
74658;SDS011;63186;51.204;6.536;2022-10-31T03:21:13;18.67;;;10.23;;
74658;SDS011;63186;51.204;6.536;2022-10-31T03:23:43;18.63;;;9.77;;
74658;SDS011;63186;51.204;6.536;2022-10-31T03:26:11;22.48;;;10.85;;
74658;SDS011;63186;51.204;6.536;2022-10-31T03:28:41;21.80;;;10.32;;
74658;SDS011;63186;51.204;6.536;2022-10-31T03:31:11;21.73;;;10.77;;
74658;SDS011;63186;51.204;6.536;2022-10-31T03:33:41;20.00;;;10.52;;
74658;SDS011;63186;51.204;6.536;2022-10-31T03:36:08;19.75;;;9.85;;
74658;SDS011;63186;51.204;6.536;2022-10-31T03:38:37;20.38;;;10.32;;
74658;SDS011;63186;51.204;6.536;2022-10-31T03:41:05;15.32;;;7.85;;
74658;SDS011;63186;51.204;6.536;2022-10-31T03:43:34;16.88;;;9.27;;
74658;SDS011;63186;51.204;6.536;2022-10-31T03:46:05;17.17;;;9.38;;
74658;SDS011;63186;51.204;6.536;2022-10-31T03:48:31;20.50;;;10.20;;
74658;SDS011;63186;51.204;6.536;2022-10-31T03:51:12;20.65;;;9.95;;
74658;SDS011;63186;51.204;6.536;2022-10-31T03:53:55;18.52;;;9.43;;
74658;SDS011;63186;51.204;6.536;2022-10-31T03:56:32;16.55;;;9.68;;
74658;SDS011;63186;51.204;6.536;2022-10-31T04:01:43;17.48;;;10.45;;
74658;SDS011;63186;51.204;6.536;2022-10-31T04:04:13;17.70;;;9.48;;
74658;SDS011;63186;51.204;6.536;2022-10-31T04:06:39;18.30;;;8.70;;
74658;SDS011;63186;51.204;6.536;2022-10-31T04:11:35;15.63;;;8.57;;
74658;SDS011;63186;51.204;6.536;2022-10-31T04:14:05;18.80;;;8.35;;
74658;SDS011;63186;51.204;6.536;2022-10-31T04:16:31;135.63;;;15.40;;
74658;SDS011;63186;51.204;6.536;2022-10-31T04:18:57;17.58;;;8.52;;
74658;SDS011;63186;51.204;6.536;2022-10-31T04:21:29;16.65;;;9.38;;
74658;SDS011;63186;51.204;6.536;2022-10-31T04:23:55;19.05;;;9.85;;
74658;SDS011;63186;51.204;6.536;2022-10-31T04:26:21;18.73;;;10.43;;
74658;SDS011;63186;51.204;6.536;2022-10-31T04:28:47;22.27;;;11.88;;
74658;SDS011;63186;51.204;6.536;2022-10-31T04:31:12;14.65;;;8.48;;
74658;SDS011;63186;51.204;6.536;2022-10-31T04:33:38;17.30;;;8.95;;
74658;SDS011;63186;51.204;6.536;2022-10-31T04:36:03;15.83;;;8.87;;
74658;SDS011;63186;51.204;6.536;2022-10-31T04:38:29;19.52;;;9.52;;
74658;SDS011;63186;51.204;6.536;2022-10-31T04:40:55;13.45;;;7.97;;
74658;SDS011;63186;51.204;6.536;2022-10-31T04:43:20;14.10;;;8.50;;
74658;SDS011;63186;51.204;6.536;2022-10-31T04:45:45;17.80;;;8.90;;
74658;SDS011;63186;51.204;6.536;2022-10-31T04:48:10;13.17;;;7.93;;
74658;SDS011;63186;51.204;6.536;2022-10-31T04:50:36;15.10;;;8.60;;
74658;SDS011;63186;51.204;6.536;2022-10-31T04:53:01;18.83;;;9.83;;
74658;SDS011;63186;51.204;6.536;2022-10-31T04:55:26;17.80;;;10.75;;
74658;SDS011;63186;51.204;6.536;2022-10-31T04:57:52;16.53;;;9.60;;
74658;SDS011;63186;51.204;6.536;2022-10-31T05:00:18;18.83;;;10.10;;
74658;SDS011;63186;51.204;6.536;2022-10-31T05:02:45;20.35;;;11.43;;
74658;SDS011;63186;51.204;6.536;2022-10-31T05:05:14;22.88;;;13.00;;
74658;SDS011;63186;51.204;6.536;2022-10-31T05:07:42;26.77;;;11.65;;
74658;SDS011;63186;51.204;6.536;2022-10-31T05:10:10;18.48;;;9.73;;
74658;SDS011;63186;51.204;6.536;2022-10-31T05:12:37;29.08;;;11.38;;
74658;SDS011;63186;51.204;6.536;2022-10-31T05:15:02;22.67;;;8.70;;
74658;SDS011;63186;51.204;6.536;2022-10-31T05:17:30;41.95;;;11.55;;
74658;SDS011;63186;51.204;6.536;2022-10-31T05:19:56;44.28;;;10.70;;
74658;SDS011;63186;51.204;6.536;2022-10-31T05:22:21;20.90;;;10.37;;
74658;SDS011;63186;51.204;6.536;2022-10-31T05:24:47;19.40;;;9.03;;
74658;SDS011;63186;51.204;6.536;2022-10-31T05:27:12;19.77;;;11.10;;
74658;SDS011;63186;51.204;6.536;2022-10-31T05:29:37;15.77;;;9.30;;
74658;SDS011;63186;51.204;6.536;2022-10-31T05:32:02;36.43;;;7.43;;
74658;SDS011;63186;51.204;6.536;2022-10-31T05:34:28;21.00;;;10.13;;
74658;SDS011;63186;51.204;6.536;2022-10-31T05:36:53;19.93;;;11.73;;
74658;SDS011;63186;51.204;6.536;2022-10-31T05:39:18;23.90;;;11.67;;
74658;SDS011;63186;51.204;6.536;2022-10-31T05:41:43;14.27;;;8.17;;
74658;SDS011;63186;51.204;6.536;2022-10-31T05:44:09;20.43;;;11.87;;
74658;SDS011;63186;51.204;6.536;2022-10-31T05:46:34;17.53;;;9.70;;
74658;SDS011;63186;51.204;6.536;2022-10-31T05:48:59;17.43;;;9.43;;
74658;SDS011;63186;51.204;6.536;2022-10-31T05:51:24;15.93;;;9.40;;
74658;SDS011;63186;51.204;6.536;2022-10-31T05:53:50;17.83;;;9.37;;
74658;SDS011;63186;51.204;6.536;2022-10-31T05:56:15;16.13;;;8.35;;
74658;SDS011;63186;51.204;6.536;2022-10-31T05:58:40;17.77;;;10.27;;
74658;SDS011;63186;51.204;6.536;2022-10-31T06:01:06;21.93;;;10.20;;
74658;SDS011;63186;51.204;6.536;2022-10-31T06:03:31;21.80;;;10.60;;
74658;SDS011;63186;51.204;6.536;2022-10-31T06:05:56;21.37;;;10.10;;
74658;SDS011;63186;51.204;6.536;2022-10-31T06:08:22;18.05;;;9.30;;
74658;SDS011;63186;51.204;6.536;2022-10-31T06:10:47;18.53;;;11.20;;
74658;SDS011;63186;51.204;6.536;2022-10-31T06:13:12;21.97;;;9.03;;
74658;SDS011;63186;51.204;6.536;2022-10-31T06:15:37;17.63;;;9.23;;
74658;SDS011;63186;51.204;6.536;2022-10-31T06:18:04;21.20;;;8.77;;
74658;SDS011;63186;51.204;6.536;2022-10-31T06:20:30;22.15;;;9.93;;
74658;SDS011;63186;51.204;6.536;2022-10-31T06:22:56;22.73;;;10.25;;
74658;SDS011;63186;51.204;6.536;2022-10-31T06:25:21;20.58;;;10.15;;
74658;SDS011;63186;51.204;6.536;2022-10-31T06:27:46;20.97;;;12.10;;
74658;SDS011;63186;51.204;6.536;2022-10-31T06:30:12;20.80;;;11.67;;
74658;SDS011;63186;51.204;6.536;2022-10-31T06:32:37;25.23;;;11.43;;
74658;SDS011;63186;51.204;6.536;2022-10-31T06:35:02;19.77;;;9.90;;
74658;SDS011;63186;51.204;6.536;2022-10-31T06:37:28;62.30;;;12.73;;
74658;SDS011;63186;51.204;6.536;2022-10-31T06:39:53;18.20;;;10.00;;
74658;SDS011;63186;51.204;6.536;2022-10-31T06:42:19;22.13;;;11.50;;
74658;SDS011;63186;51.204;6.536;2022-10-31T06:44:44;18.20;;;9.93;;
74658;SDS011;63186;51.204;6.536;2022-10-31T06:47:09;22.23;;;10.23;;
74658;SDS011;63186;51.204;6.536;2022-10-31T06:49:34;19.50;;;9.10;;
74658;SDS011;63186;51.204;6.536;2022-10-31T06:52:00;15.57;;;8.97;;
74658;SDS011;63186;51.204;6.536;2022-10-31T06:54:25;15.68;;;9.02;;
74658;SDS011;63186;51.204;6.536;2022-10-31T06:56:50;19.97;;;9.53;;
74658;SDS011;63186;51.204;6.536;2022-10-31T06:59:15;20.53;;;9.63;;
74658;SDS011;63186;51.204;6.536;2022-10-31T07:01:41;17.27;;;9.60;;
74658;SDS011;63186;51.204;6.536;2022-10-31T07:04:07;13.77;;;7.83;;
74658;SDS011;63186;51.204;6.536;2022-10-31T07:06:35;16.73;;;8.85;;
74658;SDS011;63186;51.204;6.536;2022-10-31T07:09:01;16.15;;;8.68;;
74658;SDS011;63186;51.204;6.536;2022-10-31T07:11:26;18.23;;;10.27;;
74658;SDS011;63186;51.204;6.536;2022-10-31T07:13:51;21.27;;;9.40;;
74658;SDS011;63186;51.204;6.536;2022-10-31T07:16:16;18.37;;;9.87;;
74658;SDS011;63186;51.204;6.536;2022-10-31T07:18:42;20.10;;;9.63;;
74658;SDS011;63186;51.204;6.536;2022-10-31T07:21:07;18.07;;;9.00;;
74658;SDS011;63186;51.204;6.536;2022-10-31T07:23:32;19.83;;;9.83;;
74658;SDS011;63186;51.204;6.536;2022-10-31T07:25:58;18.67;;;9.40;;
74658;SDS011;63186;51.204;6.536;2022-10-31T07:28:24;17.30;;;9.88;;
74658;SDS011;63186;51.204;6.536;2022-10-31T07:30:54;17.52;;;9.25;;
74658;SDS011;63186;51.204;6.536;2022-10-31T07:33:22;19.17;;;9.90;;
74658;SDS011;63186;51.204;6.536;2022-10-31T07:35:48;18.98;;;9.77;;
74658;SDS011;63186;51.204;6.536;2022-10-31T07:38:13;15.07;;;8.57;;
74658;SDS011;63186;51.204;6.536;2022-10-31T07:40:40;16.83;;;8.55;;
74658;SDS011;63186;51.204;6.536;2022-10-31T07:43:07;17.98;;;10.82;;
74658;SDS011;63186;51.204;6.536;2022-10-31T07:45:33;17.25;;;9.48;;
74658;SDS011;63186;51.204;6.536;2022-10-31T07:47:58;16.85;;;8.82;;
74658;SDS011;63186;51.204;6.536;2022-10-31T07:50:24;18.15;;;9.43;;
74658;SDS011;63186;51.204;6.536;2022-10-31T07:53:01;17.55;;;9.25;;
74658;SDS011;63186;51.204;6.536;2022-10-31T07:55:31;14.43;;;7.93;;
74658;SDS011;63186;51.204;6.536;2022-10-31T07:58:04;13.98;;;8.15;;
74658;SDS011;63186;51.204;6.536;2022-10-31T08:00:29;13.95;;;7.63;;
74658;SDS011;63186;51.204;6.536;2022-10-31T08:05:29;17.23;;;8.75;;
74658;SDS011;63186;51.204;6.536;2022-10-31T08:07:54;15.93;;;9.40;;
74658;SDS011;63186;51.204;6.536;2022-10-31T08:10:20;13.30;;;7.35;;
74658;SDS011;63186;51.204;6.536;2022-10-31T08:12:46;15.40;;;8.25;;
74658;SDS011;63186;51.204;6.536;2022-10-31T08:15:12;15.48;;;8.43;;
74658;SDS011;63186;51.204;6.536;2022-10-31T08:17:37;16.08;;;8.82;;
74658;SDS011;63186;51.204;6.536;2022-10-31T08:20:03;16.02;;;9.27;;
74658;SDS011;63186;51.204;6.536;2022-10-31T08:22:29;18.98;;;8.05;;
74658;SDS011;63186;51.204;6.536;2022-10-31T08:24:55;12.40;;;7.00;;
74658;SDS011;63186;51.204;6.536;2022-10-31T08:27:20;15.47;;;8.77;;
74658;SDS011;63186;51.204;6.536;2022-10-31T08:29:45;18.43;;;9.00;;
74658;SDS011;63186;51.204;6.536;2022-10-31T08:32:11;14.70;;;8.33;;
74658;SDS011;63186;51.204;6.536;2022-10-31T08:34:36;12.00;;;7.20;;
74658;SDS011;63186;51.204;6.536;2022-10-31T08:37:01;15.40;;;8.13;;
74658;SDS011;63186;51.204;6.536;2022-10-31T08:39:26;14.50;;;7.57;;
74658;SDS011;63186;51.204;6.536;2022-10-31T08:41:52;15.40;;;7.63;;
74658;SDS011;63186;51.204;6.536;2022-10-31T08:44:17;19.27;;;8.47;;
74658;SDS011;63186;51.204;6.536;2022-10-31T08:46:42;13.60;;;7.67;;
74658;SDS011;63186;51.204;6.536;2022-10-31T08:49:07;19.87;;;9.50;;
74658;SDS011;63186;51.204;6.536;2022-10-31T08:51:33;13.40;;;7.83;;
74658;SDS011;63186;51.204;6.536;2022-10-31T08:53:58;13.17;;;7.50;;
74658;SDS011;63186;51.204;6.536;2022-10-31T08:56:23;17.30;;;8.70;;
74658;SDS011;63186;51.204;6.536;2022-10-31T08:58:48;18.83;;;8.80;;
74658;SDS011;63186;51.204;6.536;2022-10-31T09:01:14;15.50;;;8.13;;
74658;SDS011;63186;51.204;6.536;2022-10-31T09:03:39;13.90;;;8.27;;
74658;SDS011;63186;51.204;6.536;2022-10-31T09:06:04;15.02;;;9.88;;
74658;SDS011;63186;51.204;6.536;2022-10-31T09:08:36;18.20;;;8.60;;
74658;SDS011;63186;51.204;6.536;2022-10-31T09:11:02;23.70;;;9.20;;
74658;SDS011;63186;51.204;6.536;2022-10-31T09:13:28;15.68;;;9.10;;
74658;SDS011;63186;51.204;6.536;2022-10-31T09:15:53;13.97;;;8.13;;
74658;SDS011;63186;51.204;6.536;2022-10-31T09:18:20;20.40;;;8.98;;
74658;SDS011;63186;51.204;6.536;2022-10-31T09:20:47;16.75;;;8.98;;
74658;SDS011;63186;51.204;6.536;2022-10-31T09:23:14;21.67;;;9.45;;
74658;SDS011;63186;51.204;6.536;2022-10-31T09:25:43;15.30;;;9.30;;
74658;SDS011;63186;51.204;6.536;2022-10-31T09:28:10;19.67;;;9.63;;
74658;SDS011;63186;51.204;6.536;2022-10-31T09:30:36;20.23;;;8.57;;
74658;SDS011;63186;51.204;6.536;2022-10-31T09:33:03;18.33;;;9.38;;
74658;SDS011;63186;51.204;6.536;2022-10-31T09:35:30;15.90;;;8.50;;
74658;SDS011;63186;51.204;6.536;2022-10-31T09:37:56;19.27;;;8.77;;
74658;SDS011;63186;51.204;6.536;2022-10-31T09:40:36;17.67;;;9.80;;
74658;SDS011;63186;51.204;6.536;2022-10-31T09:56:37;15.55;;;8.55;;
74658;SDS011;63186;51.204;6.536;2022-10-31T09:59:03;19.55;;;8.32;;
74658;SDS011;63186;51.204;6.536;2022-10-31T10:04:05;17.15;;;8.57;;
74658;SDS011;63186;51.204;6.536;2022-10-31T10:06:35;15.90;;;8.25;;
74658;SDS011;63186;51.204;6.536;2022-10-31T10:09:04;17.88;;;8.48;;
74658;SDS011;63186;51.204;6.536;2022-10-31T10:11:32;12.50;;;8.13;;
74658;SDS011;63186;51.204;6.536;2022-10-31T10:14:26;16.17;;;9.00;;
74658;SDS011;63186;51.204;6.536;2022-10-31T10:27:48;17.63;;;8.20;;
74658;SDS011;63186;51.204;6.536;2022-10-31T10:32:56;20.53;;;8.97;;
74658;SDS011;63186;51.204;6.536;2022-10-31T10:35:31;15.52;;;7.93;;
74658;SDS011;63186;51.204;6.536;2022-10-31T10:38:07;17.63;;;8.93;;
74658;SDS011;63186;51.204;6.536;2022-10-31T10:40:33;17.23;;;8.38;;
74658;SDS011;63186;51.204;6.536;2022-10-31T10:43:01;18.00;;;9.20;;
74658;SDS011;63186;51.204;6.536;2022-10-31T10:45:50;19.23;;;9.50;;
74658;SDS011;63186;51.204;6.536;2022-10-31T10:51:21;17.23;;;9.45;;
74658;SDS011;63186;51.204;6.536;2022-10-31T10:56:37;23.10;;;9.40;;
74658;SDS011;63186;51.204;6.536;2022-10-31T10:59:11;18.48;;;8.40;;
74658;SDS011;63186;51.204;6.536;2022-10-31T11:01:41;16.73;;;8.25;;
74658;SDS011;63186;51.204;6.536;2022-10-31T11:09:24;17.35;;;8.88;;
74658;SDS011;63186;51.204;6.536;2022-10-31T11:11:50;13.67;;;9.10;;
74658;SDS011;63186;51.204;6.536;2022-10-31T11:14:16;15.80;;;8.50;;
74658;SDS011;63186;51.204;6.536;2022-10-31T11:16:43;18.92;;;8.73;;
74658;SDS011;63186;51.204;6.536;2022-10-31T11:21:37;20.03;;;8.77;;
74658;SDS011;63186;51.204;6.536;2022-10-31T11:26:34;19.02;;;8.85;;
74658;SDS011;63186;51.204;6.536;2022-10-31T11:29:00;15.98;;;9.52;;
74658;SDS011;63186;51.204;6.536;2022-10-31T11:31:27;14.93;;;8.60;;
74658;SDS011;63186;51.204;6.536;2022-10-31T11:33:55;18.55;;;9.02;;
74658;SDS011;63186;51.204;6.536;2022-10-31T11:36:25;17.92;;;8.88;;
74658;SDS011;63186;51.204;6.536;2022-10-31T11:38:54;17.08;;;8.98;;
74658;SDS011;63186;51.204;6.536;2022-10-31T11:41:30;17.92;;;8.85;;
74658;SDS011;63186;51.204;6.536;2022-10-31T11:44:01;17.08;;;9.27;;
74658;SDS011;63186;51.204;6.536;2022-10-31T11:46:33;16.77;;;8.88;;
74658;SDS011;63186;51.204;6.536;2022-10-31T11:49:02;15.60;;;7.90;;
74658;SDS011;63186;51.204;6.536;2022-10-31T11:51:30;17.45;;;8.10;;
74658;SDS011;63186;51.204;6.536;2022-10-31T11:53:58;17.00;;;8.70;;
74658;SDS011;63186;51.204;6.536;2022-10-31T11:56:24;19.27;;;8.07;;
74658;SDS011;63186;51.204;6.536;2022-10-31T11:58:55;16.70;;;7.43;;
74658;SDS011;63186;51.204;6.536;2022-10-31T12:01:26;15.30;;;6.40;;
74658;SDS011;63186;51.204;6.536;2022-10-31T12:03:54;15.98;;;7.53;;
74658;SDS011;63186;51.204;6.536;2022-10-31T12:06:33;16.67;;;8.18;;
74658;SDS011;63186;51.204;6.536;2022-10-31T12:09:00;14.82;;;6.75;;
74658;SDS011;63186;51.204;6.536;2022-10-31T12:16:49;14.27;;;6.45;;
74658;SDS011;63186;51.204;6.536;2022-10-31T12:25:00;13.88;;;6.55;;
74658;SDS011;63186;51.204;6.536;2022-10-31T12:27:43;15.10;;;6.20;;
74658;SDS011;63186;51.204;6.536;2022-10-31T12:33:30;13.98;;;6.32;;
74658;SDS011;63186;51.204;6.536;2022-10-31T12:43:42;15.65;;;6.13;;
74658;SDS011;63186;51.204;6.536;2022-10-31T12:54:44;15.57;;;5.78;;
74658;SDS011;63186;51.204;6.536;2022-10-31T12:57:45;12.90;;;5.63;;
74658;SDS011;63186;51.204;6.536;2022-10-31T13:00:14;11.38;;;5.90;;
74658;SDS011;63186;51.204;6.536;2022-10-31T13:07:55;10.45;;;4.93;;
74658;SDS011;63186;51.204;6.536;2022-10-31T13:12:51;15.30;;;4.10;;
74658;SDS011;63186;51.204;6.536;2022-10-31T13:15:23;13.02;;;4.30;;
74658;SDS011;63186;51.204;6.536;2022-10-31T13:17:53;10.98;;;4.43;;
74658;SDS011;63186;51.204;6.536;2022-10-31T13:20:23;14.02;;;4.28;;
74658;SDS011;63186;51.204;6.536;2022-10-31T13:22:54;12.98;;;4.25;;
74658;SDS011;63186;51.204;6.536;2022-10-31T13:25:27;12.40;;;4.40;;
74658;SDS011;63186;51.204;6.536;2022-10-31T13:30:28;12.35;;;4.60;;
74658;SDS011;63186;51.204;6.536;2022-10-31T13:41:38;12.73;;;5.20;;
74658;SDS011;63186;51.204;6.536;2022-10-31T13:44:20;9.38;;;3.95;;
74658;SDS011;63186;51.204;6.536;2022-10-31T13:46:50;10.30;;;4.63;;
74658;SDS011;63186;51.204;6.536;2022-10-31T13:54:35;12.65;;;4.68;;
74658;SDS011;63186;51.204;6.536;2022-10-31T14:00:01;9.98;;;4.43;;
74658;SDS011;63186;51.204;6.536;2022-10-31T14:02:31;12.18;;;4.35;;
74658;SDS011;63186;51.204;6.536;2022-10-31T14:05:00;11.15;;;4.07;;
74658;SDS011;63186;51.204;6.536;2022-10-31T14:07:26;9.93;;;4.25;;
74658;SDS011;63186;51.204;6.536;2022-10-31T14:09:54;13.10;;;4.50;;
74658;SDS011;63186;51.204;6.536;2022-10-31T14:12:30;11.90;;;4.30;;
74658;SDS011;63186;51.204;6.536;2022-10-31T14:15:04;12.55;;;4.90;;
74658;SDS011;63186;51.204;6.536;2022-10-31T14:17:44;14.27;;;4.30;;
74658;SDS011;63186;51.204;6.536;2022-10-31T14:22:36;9.83;;;4.10;;
74658;SDS011;63186;51.204;6.536;2022-10-31T14:27:59;10.27;;;4.07;;
74658;SDS011;63186;51.204;6.536;2022-10-31T14:35:21;12.13;;;4.72;;
74658;SDS011;63186;51.204;6.536;2022-10-31T14:40:27;12.67;;;4.37;;
74658;SDS011;63186;51.204;6.536;2022-10-31T14:50:57;12.30;;;4.43;;
74658;SDS011;63186;51.204;6.536;2022-10-31T14:55:56;11.88;;;3.83;;
74658;SDS011;63186;51.204;6.536;2022-10-31T14:58:23;10.70;;;4.43;;
74658;SDS011;63186;51.204;6.536;2022-10-31T15:01:05;15.40;;;4.85;;
74658;SDS011;63186;51.204;6.536;2022-10-31T15:03:32;9.52;;;3.75;;
74658;SDS011;63186;51.204;6.536;2022-10-31T15:06:03;11.57;;;3.97;;
74658;SDS011;63186;51.204;6.536;2022-10-31T15:08:38;10.80;;;4.00;;
74658;SDS011;63186;51.204;6.536;2022-10-31T15:13:42;8.60;;;4.15;;
74658;SDS011;63186;51.204;6.536;2022-10-31T15:16:09;9.70;;;4.68;;
74658;SDS011;63186;51.204;6.536;2022-10-31T15:18:36;13.48;;;3.55;;
74658;SDS011;63186;51.204;6.536;2022-10-31T15:21:11;8.93;;;3.67;;
74658;SDS011;63186;51.204;6.536;2022-10-31T15:23:40;9.18;;;4.00;;
74658;SDS011;63186;51.204;6.536;2022-10-31T15:26:11;11.65;;;4.00;;
74658;SDS011;63186;51.204;6.536;2022-10-31T15:28:42;8.45;;;3.53;;
74658;SDS011;63186;51.204;6.536;2022-10-31T15:31:15;10.30;;;4.05;;
74658;SDS011;63186;51.204;6.536;2022-10-31T15:33:42;11.23;;;4.07;;
74658;SDS011;63186;51.204;6.536;2022-10-31T15:36:20;11.98;;;3.75;;
74658;SDS011;63186;51.204;6.536;2022-10-31T15:38:47;10.63;;;3.78;;
74658;SDS011;63186;51.204;6.536;2022-10-31T15:43:52;12.20;;;4.32;;
74658;SDS011;63186;51.204;6.536;2022-10-31T15:46:19;14.15;;;5.32;;
74658;SDS011;63186;51.204;6.536;2022-10-31T15:48:46;12.48;;;4.70;;
74658;SDS011;63186;51.204;6.536;2022-10-31T15:51:12;9.57;;;3.67;;
74658;SDS011;63186;51.204;6.536;2022-10-31T15:53:48;8.85;;;3.70;;
74658;SDS011;63186;51.204;6.536;2022-10-31T15:56:50;8.68;;;3.35;;
74658;SDS011;63186;51.204;6.536;2022-10-31T15:59:16;10.57;;;3.90;;
74658;SDS011;63186;51.204;6.536;2022-10-31T16:02:01;12.80;;;5.47;;
74658;SDS011;63186;51.204;6.536;2022-10-31T16:04:28;11.32;;;3.70;;
74658;SDS011;63186;51.204;6.536;2022-10-31T16:06:58;9.55;;;3.78;;
74658;SDS011;63186;51.204;6.536;2022-10-31T16:09:28;9.15;;;3.78;;
74658;SDS011;63186;51.204;6.536;2022-10-31T16:11:55;9.52;;;3.42;;
74658;SDS011;63186;51.204;6.536;2022-10-31T16:14:23;8.43;;;3.90;;
74658;SDS011;63186;51.204;6.536;2022-10-31T16:16:55;13.35;;;4.47;;
74658;SDS011;63186;51.204;6.536;2022-10-31T16:19:23;11.18;;;3.90;;
74658;SDS011;63186;51.204;6.536;2022-10-31T16:21:52;14.02;;;4.03;;
74658;SDS011;63186;51.204;6.536;2022-10-31T16:24:22;11.75;;;3.47;;
74658;SDS011;63186;51.204;6.536;2022-10-31T16:26:55;12.98;;;4.55;;
74658;SDS011;63186;51.204;6.536;2022-10-31T16:29:48;10.57;;;3.72;;
74658;SDS011;63186;51.204;6.536;2022-10-31T16:34:58;11.15;;;4.13;;
74658;SDS011;63186;51.204;6.536;2022-10-31T16:37:25;10.00;;;3.95;;
74658;SDS011;63186;51.204;6.536;2022-10-31T16:39:50;13.27;;;4.67;;
74658;SDS011;63186;51.204;6.536;2022-10-31T16:42:15;11.73;;;4.53;;
74658;SDS011;63186;51.204;6.536;2022-10-31T16:44:47;9.43;;;3.75;;
74658;SDS011;63186;51.204;6.536;2022-10-31T16:47:14;12.80;;;3.78;;
74658;SDS011;63186;51.204;6.536;2022-10-31T16:49:41;11.30;;;3.50;;
74658;SDS011;63186;51.204;6.536;2022-10-31T16:52:08;10.70;;;3.80;;
74658;SDS011;63186;51.204;6.536;2022-10-31T16:54:33;12.07;;;4.03;;
74658;SDS011;63186;51.204;6.536;2022-10-31T16:56:59;10.20;;;3.65;;
74658;SDS011;63186;51.204;6.536;2022-10-31T16:59:27;12.68;;;4.22;;
74658;SDS011;63186;51.204;6.536;2022-10-31T17:01:53;14.35;;;5.10;;
74658;SDS011;63186;51.204;6.536;2022-10-31T17:04:20;11.80;;;4.80;;
74658;SDS011;63186;51.204;6.536;2022-10-31T17:06:46;9.57;;;4.63;;
74658;SDS011;63186;51.204;6.536;2022-10-31T17:09:11;9.45;;;4.25;;
74658;SDS011;63186;51.204;6.536;2022-10-31T17:11:44;8.93;;;3.97;;
74658;SDS011;63186;51.204;6.536;2022-10-31T17:14:12;8.77;;;4.20;;
74658;SDS011;63186;51.204;6.536;2022-10-31T17:16:38;12.63;;;4.95;;
74658;SDS011;63186;51.204;6.536;2022-10-31T17:19:03;11.87;;;4.50;;
74658;SDS011;63186;51.204;6.536;2022-10-31T17:21:28;11.27;;;4.85;;
74658;SDS011;63186;51.204;6.536;2022-10-31T17:23:54;12.30;;;3.92;;
74658;SDS011;63186;51.204;6.536;2022-10-31T17:26:20;11.07;;;5.00;;
74658;SDS011;63186;51.204;6.536;2022-10-31T17:28:45;11.63;;;4.60;;